Time;durP1;ratioP1;P1;durP2;ratioP2;P2;SDS_P1;SDS_P2;PMS_P1;PMS_P2;Temp;Humidity;BMP_temperature;BMP_pressure;BME280_temperature;BME280_humidity;BME280_pressure;Samples;Min_cycle;Max_cycle;Signal;HPM_P1;HPM_P2
2023/06/12 00:00:38;;;;;;;10.85;8.50;;;20.70;99.90;;;;;;4213597;28;20055;-59
2023/06/12 00:02:40;;;;;;;15.43;8.90;;;20.70;99.90;;;;;;4213911;28;20071;-59
2023/06/12 00:04:44;;;;;;;11.55;8.73;;;20.70;99.90;;;;;;4213661;28;20126;-59
2023/06/12 00:06:47;;;;;;;11.70;8.63;;;20.70;99.90;;;;;;4213688;28;20093;-59
2023/06/12 00:08:50;;;;;;;11.07;7.90;;;20.70;99.90;;;;;;4213070;28;20036;-59
2023/06/12 00:10:53;;;;;;;12.40;9.63;;;20.70;99.90;;;;;;4213459;28;20044;-59
2023/06/12 00:12:55;;;;;;;15.27;8.80;;;20.70;99.90;;;;;;4213571;28;20040;-59
2023/06/12 00:14:59;;;;;;;15.48;8.93;;;20.60;99.90;;;;;;4213744;28;20044;-59
2023/06/12 00:17:01;;;;;;;15.07;8.57;;;20.70;99.90;;;;;;4213621;28;20044;-59
2023/06/12 00:19:03;;;;;;;12.98;8.45;;;20.70;99.90;;;;;;4212397;28;20131;-59
2023/06/12 00:21:08;;;;;;;14.25;7.97;;;20.70;99.90;;;;;;4213539;28;20040;-59
2023/06/12 00:23:10;;;;;;;;;;;20.60;99.90;;;;;;4214189;28;20044;-59
2023/06/12 00:25:12;;;;;;;9.75;7.20;;;20.60;99.90;;;;;;4213214;28;19923;-59
2023/06/12 00:27:16;;;;;;;10.70;8.20;;;20.50;99.90;;;;;;4213187;28;20543;-59
2023/06/12 00:29:18;;;;;;;9.07;7.40;;;20.50;99.90;;;;;;4212478;28;20066;-59
2023/06/12 00:31:20;;;;;;;8.90;7.00;;;20.60;99.90;;;;;;4213433;28;20071;-59
2023/06/12 00:33:22;;;;;;;13.15;8.05;;;20.50;99.90;;;;;;4213273;28;20512;-59
2023/06/12 00:35:24;;;;;;;14.07;7.82;;;20.50;99.90;;;;;;4213593;28;20050;-59
2023/06/12 00:37:27;;;;;;;8.77;6.95;;;20.50;99.90;;;;;;4195705;28;20055;-59
2023/06/12 00:39:29;;;;;;;10.95;7.45;;;20.50;99.90;;;;;;4212334;28;20101;-59
2023/06/12 00:41:31;;;;;;;9.77;6.80;;;20.50;99.90;;;;;;4213511;28;20484;-59
2023/06/12 00:43:35;;;;;;;8.85;7.72;;;20.50;99.90;;;;;;4213963;28;20053;-58
2023/06/12 00:45:37;;;;;;;10.07;7.60;;;20.50;99.90;;;;;;4213325;28;20048;-59
2023/06/12 00:47:40;;;;;;;9.45;7.93;;;20.50;99.90;;;;;;4195706;28;20052;-59
2023/06/12 00:49:42;;;;;;;12.30;7.57;;;20.50;99.90;;;;;;4212670;28;20039;-61
2023/06/12 00:51:45;;;;;;;10.13;7.47;;;20.50;99.90;;;;;;4213661;28;20082;-59
2023/06/12 00:53:47;;;;;;;13.05;7.82;;;20.40;99.90;;;;;;4213546;28;20040;-59
2023/06/12 00:55:49;;;;;;;10.15;7.35;;;20.40;99.90;;;;;;4213632;28;20533;-64
2023/06/12 00:57:51;;;;;;;11.70;6.93;;;20.50;99.90;;;;;;4213530;28;20413;-59
2023/06/12 00:59:54;;;;;;;9.63;7.40;;;20.40;99.90;;;;;;4212238;28;20401;-59
2023/06/12 01:01:57;;;;;;;9.38;7.93;;;20.40;99.90;;;;;;4213074;28;20596;-59
2023/06/12 01:04:00;;;;;;;10.18;7.60;;;20.40;99.90;;;;;;4213232;28;20051;-59
2023/06/12 01:06:09;;;;;;;11.13;7.72;;;20.40;99.90;;;;;;4213658;28;20489;-59
2023/06/12 01:08:20;;;;;;;10.80;7.28;;;20.40;99.90;;;;;;4213253;28;20055;-59
2023/06/12 01:10:30;;;;;;;11.50;8.30;;;20.40;99.90;;;;;;4212089;28;20549;-59
2023/06/12 01:12:34;;;;;;;8.32;7.40;;;20.40;99.90;;;;;;4213475;28;20040;-59
2023/06/12 01:14:37;;;;;;;17.30;7.65;;;20.40;99.90;;;;;;4213230;28;20135;-59
2023/06/12 01:16:40;;;;;;;9.88;7.03;;;20.40;99.90;;;;;;4212950;28;20048;-59
2023/06/12 01:18:43;;;;;;;12.52;8.38;;;20.40;99.90;;;;;;4212996;28;20054;-59
2023/06/12 01:20:45;;;;;;;9.75;7.22;;;20.40;99.90;;;;;;4212363;28;20087;-59
2023/06/12 01:22:53;;;;;;;10.90;7.80;;;20.30;99.90;;;;;;4213149;28;20052;-59
2023/06/12 01:25:26;;;;;;;7.57;6.88;;;20.30;99.90;;;;;;4213501;28;20482;-58
2023/06/12 01:27:41;;;;;;;9.38;7.22;;;20.30;99.90;;;;;;4144646;28;20108;-59
2023/06/12 01:30:06;;;;;;;8.50;7.53;;;20.20;99.90;;;;;;4144050;28;20084;-59
2023/06/12 01:32:15;;;;;;;10.65;7.32;;;20.30;99.90;;;;;;4145133;28;20125;-58
2023/06/12 01:34:23;;;;;;;11.13;7.05;;;20.20;99.90;;;;;;4145303;28;20516;-56
2023/06/12 01:36:27;;;;;;;12.25;7.63;;;20.20;99.90;;;;;;4145271;28;20077;-57
2023/06/12 01:38:34;;;;;;;9.40;7.00;;;20.30;99.90;;;;;;4148026;28;20065;-55
2023/06/12 01:40:38;;;;;;;11.80;6.78;;;20.30;99.90;;;;;;4146941;28;20488;-56
2023/06/12 01:42:41;;;;;;;12.80;7.53;;;20.20;99.90;;;;;;4147993;28;20046;-55
2023/06/12 01:44:43;;;;;;;11.73;7.32;;;20.20;99.90;;;;;;4147401;28;20459;-55
2023/06/12 01:46:45;;;;;;;8.10;5.75;;;20.20;99.90;;;;;;4147873;28;20459;-56
2023/06/12 01:48:48;;;;;;;12.05;7.32;;;20.20;99.90;;;;;;4147803;28;20049;-58
2023/06/12 01:50:50;;;;;;;8.75;6.93;;;20.10;99.90;;;;;;4146636;28;20079;-58
2023/06/12 01:52:52;;;;;;;14.10;7.63;;;20.20;99.90;;;;;;4147681;28;20520;-58
2023/06/12 01:54:58;;;;;;;10.35;7.90;;;20.20;99.90;;;;;;4147875;28;20050;-58
2023/06/12 01:57:01;;;;;;;9.25;6.70;;;20.20;99.90;;;;;;4147579;28;20042;-59
2023/06/12 01:59:04;;;;;;;12.27;7.43;;;20.10;99.90;;;;;;4146572;28;20065;-60
2023/06/12 02:01:06;;;;;;;10.60;7.13;;;20.20;99.90;;;;;;4147536;28;20049;-59
2023/06/12 02:03:10;;;;;;;12.52;7.80;;;20.10;99.90;;;;;;4147574;28;20079;-58
2023/06/12 02:05:13;;;;;;;11.00;7.37;;;20.10;99.90;;;;;;4192172;28;20047;-59
2023/06/12 02:07:16;;;;;;;11.35;7.53;;;20.00;99.90;;;;;;4216101;28;20048;-59
2023/06/12 02:09:19;;;;;;;12.77;7.55;;;20.10;99.90;;;;;;4214976;28;20052;-59
2023/06/12 02:11:21;;;;;;;13.50;8.20;;;20.00;99.90;;;;;;4215368;28;20414;-59
2023/06/12 02:13:23;;;;;;;9.20;7.25;;;20.00;99.90;;;;;;4215442;28;20071;-59
2023/06/12 02:15:25;;;;;;;12.55;7.10;;;20.00;99.90;;;;;;4215569;28;20399;-59
2023/06/12 02:17:27;;;;;;;11.48;7.28;;;20.00;99.90;;;;;;4215351;28;20072;-59
2023/06/12 02:19:29;;;;;;;19.70;8.70;;;20.00;99.90;;;;;;4214666;28;20048;-59
2023/06/12 02:21:33;;;;;;;15.00;7.65;;;20.10;99.90;;;;;;4215370;28;20153;-58
2023/06/12 02:23:35;;;;;;;9.98;7.30;;;20.10;99.90;;;;;;4215398;28;20051;-58
2023/06/12 02:25:37;;;;;;;12.05;7.93;;;20.10;99.90;;;;;;4215432;28;20044;-58
2023/06/12 02:27:39;;;;;;;10.25;7.30;;;20.10;99.90;;;;;;4215101;28;20052;-58
2023/06/12 02:29:41;;;;;;;13.27;8.95;;;20.10;99.90;;;;;;4213790;28;20467;-58
2023/06/12 02:31:44;;;;;;;11.13;7.45;;;20.00;99.90;;;;;;4215240;28;20048;-59
2023/06/12 02:33:46;;;;;;;13.65;8.23;;;20.00;99.90;;;;;;4215428;28;20044;-58
2023/06/12 02:35:48;;;;;;;14.85;8.45;;;20.00;99.90;;;;;;4214783;28;20442;-59
2023/06/12 02:37:52;;;;;;;11.00;8.00;;;20.00;99.90;;;;;;4214372;28;20048;-58
2023/06/12 02:39:54;;;;;;;13.38;7.75;;;19.90;99.90;;;;;;4214471;28;20052;-60
2023/06/12 02:41:56;;;;;;;12.10;7.97;;;19.90;99.90;;;;;;4215759;28;20480;-59
2023/06/12 02:43:58;;;;;;;19.02;7.93;;;19.90;99.90;;;;;;4197795;28;20056;-67
2023/06/12 02:46:00;;;;;;;8.95;6.85;;;19.90;99.90;;;;;;4214973;28;20080;-58
2023/06/12 02:48:02;;;;;;;10.10;7.60;;;19.90;99.90;;;;;;4214937;28;20068;-59
2023/06/12 02:50:05;;;;;;;12.73;7.90;;;20.00;99.90;;;;;;4213534;28;20094;-59
2023/06/12 02:52:08;;;;;;;14.63;8.50;;;20.00;99.90;;;;;;4215334;28;20044;-60
2023/06/12 02:54:12;;;;;;;11.45;8.10;;;20.00;99.90;;;;;;4215179;28;20068;-59
2023/06/12 02:56:14;;;;;;;11.57;8.30;;;19.90;99.90;;;;;;4214875;28;20054;-63
2023/06/12 02:58:17;;;;;;;11.90;8.40;;;20.00;99.90;;;;;;4214574;28;20405;-57
2023/06/12 03:00:20;;;;;;;11.45;9.07;;;19.90;99.90;;;;;;4213664;28;20497;-58
2023/06/12 03:02:22;;;;;;;13.38;8.00;;;19.90;99.90;;;;;;4214900;28;20474;-58
2023/06/12 03:04:24;;;;;;;11.95;7.53;;;19.90;99.90;;;;;;4215041;28;20040;-58
2023/06/12 03:06:28;;;;;;;12.10;8.05;;;19.90;99.90;;;;;;4214785;28;20105;-59
2023/06/12 03:08:31;;;;;;;9.77;7.53;;;19.90;99.90;;;;;;4214678;28;20048;-58
2023/06/12 03:10:34;;;;;;;12.52;7.30;;;19.90;99.90;;;;;;4213717;28;20109;-59
2023/06/12 03:12:36;;;;;;;13.48;8.43;;;19.90;99.90;;;;;;4214627;28;20055;-58
2023/06/12 03:14:38;;;;;;;14.48;8.50;;;19.90;99.90;;;;;;4214784;28;20117;-58
2023/06/12 03:16:40;;;;;;;14.50;8.10;;;20.00;99.90;;;;;;4214582;28;20124;-59
2023/06/12 03:18:42;;;;;;;10.82;7.97;;;20.00;99.90;;;;;;4214457;28;20048;-59
2023/06/12 03:20:45;;;;;;;15.70;9.00;;;19.90;99.90;;;;;;4213567;28;20054;-58
2023/06/12 03:22:47;;;;;;;16.15;8.27;;;19.90;99.90;;;;;;4214479;28;20355;-59
2023/06/12 03:24:53;;;;;;;11.25;8.07;;;19.90;99.90;;;;;;4214449;28;20131;-58
2023/06/12 03:26:58;;;;;;;16.10;8.10;;;19.90;99.90;;;;;;4214034;28;20120;-59
2023/06/12 03:29:01;;;;;;;14.98;8.02;;;20.00;99.90;;;;;;4214584;28;20504;-59
2023/06/12 03:31:03;;;;;;;13.90;8.38;;;19.80;99.90;;;;;;4213070;28;20052;-58
2023/06/12 03:33:05;;;;;;;9.90;8.25;;;19.80;99.90;;;;;;4214375;28;20470;-58
2023/06/12 03:35:08;;;;;;;14.20;7.63;;;19.80;99.90;;;;;;4214243;28;20055;-59
2023/06/12 03:37:10;;;;;;;14.98;8.20;;;19.80;99.90;;;;;;4214418;28;20469;-59
2023/06/12 03:39:12;;;;;;;12.98;7.97;;;19.80;99.90;;;;;;4214302;28;20409;-58
2023/06/12 03:41:15;;;;;;;12.93;8.82;;;19.80;99.90;;;;;;4212974;28;20071;-58
2023/06/12 03:43:19;;;;;;;16.10;8.38;;;19.90;99.90;;;;;;4213816;28;20068;-59
2023/06/12 03:45:21;;;;;;;13.40;8.23;;;19.80;99.90;;;;;;4214282;28;20054;-60
2023/06/12 03:47:23;;;;;;;11.90;8.70;;;19.90;99.90;;;;;;4214128;28;20040;-59
2023/06/12 03:49:26;;;;;;;13.25;7.88;;;19.90;99.90;;;;;;4195728;28;20061;-59
2023/06/12 03:51:28;;;;;;;10.45;8.18;;;19.90;99.90;;;;;;4213709;28;20124;-59
2023/06/12 03:53:31;;;;;;;16.17;8.82;;;19.90;99.90;;;;;;4213840;28;20052;-58
2023/06/12 03:55:34;;;;;;;12.77;7.72;;;19.90;99.90;;;;;;4213669;28;20044;-58
2023/06/12 03:57:36;;;;;;;11.73;8.68;;;20.00;99.90;;;;;;4214027;28;20050;-58
2023/06/12 03:59:39;;;;;;;12.05;8.23;;;19.90;99.90;;;;;;4212919;28;20397;-58
2023/06/12 04:01:42;;;;;;;14.00;9.45;;;19.90;99.90;;;;;;4213758;28;20444;-57
2023/06/12 04:03:45;;;;;;;12.57;8.32;;;19.90;99.90;;;;;;4213842;28;20054;-58
2023/06/12 04:05:48;;;;;;;11.88;7.90;;;19.90;99.90;;;;;;4213429;28;20075;-59
2023/06/12 04:07:50;;;;;;;19.67;10.15;;;20.00;99.90;;;;;;4213761;28;20055;-58
2023/06/12 04:09:52;;;;;;;12.65;8.10;;;20.00;99.90;;;;;;4212710;28;20048;-58
2023/06/12 04:11:56;;;;;;;11.75;8.35;;;19.90;99.90;;;;;;4213731;28;20504;-59
2023/06/12 04:13:58;;;;;;;9.48;7.80;;;19.90;99.90;;;;;;4213752;28;20052;-58
2023/06/12 04:16:02;;;;;;;14.40;8.57;;;19.90;99.90;;;;;;4213782;28;20051;-59
2023/06/12 04:18:05;;;;;;;13.85;9.68;;;20.00;99.90;;;;;;4213915;28;20109;-61
2023/06/12 04:20:09;;;;;;;16.15;10.52;;;19.90;99.90;;;;;;4213166;28;20056;-59
2023/06/12 04:22:12;;;;;;;18.10;10.27;;;19.90;99.90;;;;;;4213760;28;20044;-59
2023/06/12 04:24:19;;;;;;;14.57;11.10;;;19.90;99.90;;;;;;4213423;28;20044;-59
2023/06/12 04:26:24;;;;;;;14.48;9.93;;;19.90;99.90;;;;;;4213423;28;20093;-59
2023/06/12 04:28:28;;;;;;;17.15;10.90;;;19.90;99.90;;;;;;4213675;28;20051;-59
2023/06/12 04:30:33;;;;;;;18.02;10.32;;;19.90;99.90;;;;;;4212722;28;20083;-59
2023/06/12 04:32:37;;;;;;;14.75;10.43;;;19.90;99.90;;;;;;4195765;28;20504;-59
2023/06/12 04:34:43;;;;;;;14.77;10.85;;;19.90;99.90;;;;;;4213641;28;20481;-58
2023/06/12 04:36:45;;;;;;;17.08;10.63;;;19.90;99.90;;;;;;4213871;28;20074;-58
2023/06/12 04:38:50;;;;;;;13.63;9.95;;;19.90;99.90;;;;;;4213721;28;20488;-59
2023/06/12 04:40:54;;;;;;;16.38;10.70;;;19.90;99.90;;;;;;4213085;28;20051;-59
2023/06/12 04:42:59;;;;;;;13.35;9.70;;;19.90;99.90;;;;;;4214387;28;20409;-59
2023/06/12 04:45:04;;;;;;;11.43;9.40;;;19.90;99.90;;;;;;4213587;28;20066;-58
2023/06/12 04:47:10;;;;;;;;;;;19.80;99.90;;;;;;4214238;28;20131;-59
2023/06/12 04:49:15;;;;;;;19.52;10.63;;;19.90;99.90;;;;;;4213498;28;19927;-58
2023/06/12 04:51:17;;;;;;;;;;;19.80;99.90;;;;;;4213070;28;20345;-58
2023/06/12 04:53:27;;;;;;;13.45;9.55;;;19.90;99.90;;;;;;4195329;28;19920;-58
2023/06/12 04:55:30;;;;;;;14.07;9.20;;;19.80;99.90;;;;;;4213461;28;20048;-58
2023/06/12 04:57:32;;;;;;;16.45;9.35;;;19.80;99.90;;;;;;4213641;28;20448;-59
2023/06/12 04:59:38;;;;;;;12.60;8.65;;;19.80;99.90;;;;;;4213106;28;20404;-59
2023/06/12 05:01:40;;;;;;;13.30;9.30;;;19.80;99.90;;;;;;4212882;28;20408;-58
2023/06/12 05:03:43;;;;;;;13.93;9.00;;;19.80;99.90;;;;;;4213338;28;20076;-58
2023/06/12 05:05:47;;;;;;;12.00;8.02;;;19.80;99.90;;;;;;4195623;28;20070;-58
2023/06/12 05:07:49;;;;;;;11.93;7.88;;;19.80;99.90;;;;;;4212904;28;20048;-58
2023/06/12 05:09:51;;;;;;;15.77;7.53;;;19.90;99.90;;;;;;4212546;28;20044;-58
2023/06/12 05:11:53;;;;;;;12.50;8.15;;;19.90;99.90;;;;;;4213796;28;20044;-58
2023/06/12 05:13:55;;;;;;;9.68;8.68;;;20.00;99.90;;;;;;4216538;28;20054;-58
2023/06/12 05:15:57;;;;;;;11.05;8.35;;;20.00;99.90;;;;;;4216499;28;20044;-58
2023/06/12 05:18:00;;;;;;;11.52;7.75;;;20.00;99.90;;;;;;4216338;28;20068;-58
2023/06/12 05:20:12;;;;;;;11.25;8.57;;;20.00;99.90;;;;;;4215433;28;20127;-57
2023/06/12 05:22:16;;;;;;;13.45;8.18;;;20.00;99.90;;;;;;4216086;28;20046;-59
2023/06/12 05:24:18;;;;;;;14.75;8.25;;;20.00;99.90;;;;;;4216783;28;20044;-59
2023/06/12 05:26:21;;;;;;;10.55;8.05;;;20.00;99.90;;;;;;4216406;28;20502;-61
2023/06/12 05:28:23;;;;;;;12.45;8.88;;;20.00;99.90;;;;;;4216319;28;20466;-59
2023/06/12 05:30:25;;;;;;;12.95;8.38;;;20.00;99.90;;;;;;4215495;28;20055;-58
2023/06/12 05:32:27;;;;;;;14.68;8.45;;;20.00;99.90;;;;;;4216195;28;20079;-58
2023/06/12 05:34:29;;;;;;;10.20;7.25;;;20.00;99.90;;;;;;4216269;28;20047;-58
2023/06/12 05:36:31;;;;;;;8.93;6.68;;;20.00;99.90;;;;;;4216113;28;20449;-58
2023/06/12 05:38:35;;;;;;;10.23;7.75;;;20.00;99.90;;;;;;4216166;28;20052;-58
2023/06/12 05:40:37;;;;;;;10.20;6.93;;;20.10;99.90;;;;;;4215110;28;20074;-58
2023/06/12 05:42:40;;;;;;;15.82;7.85;;;20.10;99.90;;;;;;4216336;28;20143;-58
2023/06/12 05:44:42;;;;;;;11.52;6.85;;;20.00;99.90;;;;;;4215902;28;20122;-58
2023/06/12 05:46:45;;;;;;;9.95;7.60;;;20.10;99.90;;;;;;4215958;28;20044;-58
2023/06/12 05:48:48;;;;;;;11.73;7.70;;;20.00;99.90;;;;;;4216166;28;20105;-58
2023/06/12 05:50:50;;;;;;;13.95;7.57;;;20.10;99.90;;;;;;4214932;28;20050;-59
2023/06/12 05:52:52;;;;;;;10.43;7.07;;;20.10;99.90;;;;;;4215395;28;20058;-58
2023/06/12 05:54:56;;;;;;;13.80;6.50;;;20.10;99.90;;;;;;4216198;28;20127;-58
2023/06/12 05:56:58;;;;;;;9.73;6.63;;;20.20;99.90;;;;;;4216163;28;20044;-58
2023/06/12 05:59:00;;;;;;;10.63;6.40;;;20.20;99.90;;;;;;4216141;28;20482;-59
2023/06/12 06:01:04;;;;;;;11.20;6.72;;;20.30;99.90;;;;;;4214701;28;20075;-59
2023/06/12 06:03:06;;;;;;;12.85;7.03;;;20.40;99.90;;;;;;4216012;28;20509;-59
2023/06/12 06:05:11;;;;;;;15.60;7.15;;;20.40;99.90;;;;;;4215746;28;20436;-60
2023/06/12 06:07:14;;;;;;;11.88;7.30;;;20.40;99.90;;;;;;4215409;28;20048;-58
2023/06/12 06:09:20;;;;;;;12.93;6.95;;;20.50;99.90;;;;;;4215510;28;20048;-59
2023/06/12 06:11:24;;;;;;;10.43;6.60;;;20.60;99.90;;;;;;4214505;28;20051;-60
2023/06/12 06:13:26;;;;;;;6.95;5.68;;;20.60;99.90;;;;;;4215511;28;20118;-59
2023/06/12 06:15:28;;;;;;;12.32;6.10;;;20.80;99.90;;;;;;4215452;28;20047;-59
2023/06/12 06:17:30;;;;;;;10.35;6.28;;;20.80;99.90;;;;;;4215540;28;20044;-59
2023/06/12 06:19:33;;;;;;;11.52;7.10;;;20.90;99.90;;;;;;4215591;28;20469;-59
2023/06/12 06:21:35;;;;;;;16.60;7.07;;;20.80;99.90;;;;;;4196288;28;20551;-59
2023/06/12 06:23:38;;;;;;;12.80;7.35;;;20.70;99.90;;;;;;4214222;28;20072;-59
2023/06/12 06:25:41;;;;;;;16.00;7.15;;;20.80;99.90;;;;;;4215485;28;20048;-60
2023/06/12 06:27:47;;;;;;;11.98;6.97;;;20.80;99.90;;;;;;4215322;28;20047;-59
2023/06/12 06:29:49;;;;;;;12.00;6.97;;;20.80;99.90;;;;;;4215605;28;20396;-59
2023/06/12 06:31:51;;;;;;;16.70;7.22;;;20.80;99.90;;;;;;4214336;28;20044;-59
2023/06/12 06:33:53;;;;;;;13.90;7.10;;;20.90;99.90;;;;;;4215222;28;20058;-58
2023/06/12 06:35:55;;;;;;;16.10;6.82;;;20.90;99.90;;;;;;4215341;28;20113;-64
2023/06/12 06:37:58;;;;;;;13.52;6.93;;;20.90;99.90;;;;;;4198442;28;20041;-60
2023/06/12 06:40:00;;;;;;;11.35;6.45;;;20.80;99.90;;;;;;4215004;28;20083;-60
2023/06/12 06:42:02;;;;;;;13.57;6.80;;;20.70;99.90;;;;;;4215434;28;20409;-60
2023/06/12 06:44:08;;;;;;;15.82;6.82;;;20.70;99.90;;;;;;4215032;28;20060;-60
2023/06/12 06:46:10;;;;;;;15.18;7.47;;;20.80;99.90;;;;;;4215109;28;20072;-59
2023/06/12 06:48:12;;;;;;;8.90;6.00;;;20.70;99.90;;;;;;4215151;28;20052;-60
2023/06/12 06:50:14;;;;;;;13.20;6.47;;;20.70;99.90;;;;;;4213903;28;20358;-63
2023/06/12 06:52:18;;;;;;;20.17;6.97;;;20.80;99.90;;;;;;4214980;28;20072;-61
2023/06/12 06:54:20;;;;;;;11.25;5.97;;;20.70;99.90;;;;;;4205362;28;20071;-62
2023/06/12 06:56:22;;;;;;;15.50;6.70;;;20.70;99.90;;;;;;4198269;28;20075;-59
2023/06/12 06:58:24;;;;;;;9.32;5.97;;;20.80;99.90;;;;;;4197718;28;20533;-59
2023/06/12 07:00:28;;;;;;;17.65;7.00;;;20.70;99.90;;;;;;4197442;28;20044;-59
2023/06/12 07:02:30;;;;;;;13.00;6.43;;;20.80;99.90;;;;;;4198303;28;20583;-59
2023/06/12 07:04:32;;;;;;;8.13;6.13;;;20.70;99.90;;;;;;4197600;28;20075;-59
2023/06/12 07:06:34;;;;;;;13.10;6.15;;;20.80;99.90;;;;;;4197777;28;20048;-59
2023/06/12 07:08:36;;;;;;;18.65;6.30;;;20.80;99.90;;;;;;4196813;28;20461;-59
2023/06/12 07:10:38;;;;;;;8.38;5.60;;;20.80;99.90;;;;;;4196987;28;20045;-59
2023/06/12 07:12:40;;;;;;;7.43;5.25;;;20.80;99.90;;;;;;4198109;28;20083;-59
2023/06/12 07:14:42;;;;;;;10.45;5.80;;;20.90;99.90;;;;;;4197807;28;20123;-59
2023/06/12 07:16:45;;;;;;;10.82;5.78;;;20.80;99.90;;;;;;4197747;28;20056;-61
2023/06/12 07:18:47;;;;;;;22.88;7.57;;;20.90;99.90;;;;;;4197515;28;20477;-59
2023/06/12 07:20:50;;;;;;;14.13;6.22;;;21.00;99.90;;;;;;4196678;28;20048;-59
2023/06/12 07:22:52;;;;;;;10.85;5.20;;;21.10;99.90;;;;;;4197702;28;20120;-59
2023/06/12 07:24:54;;;;;;;9.80;5.07;;;21.20;99.90;;;;;;4197559;28;20098;-61
2023/06/12 07:26:56;;;;;;;9.93;6.18;;;21.30;99.90;;;;;;4205141;28;20044;-59
2023/06/12 07:28:59;;;;;;;19.48;6.07;;;21.40;99.90;;;;;;4196408;28;20053;-59
2023/06/12 07:31:02;;;;;;;16.42;7.10;;;21.50;99.90;;;;;;4213314;28;20387;-59
2023/06/12 07:33:05;;;;;;;15.88;6.10;;;21.50;99.90;;;;;;4214038;28;20085;-59
2023/06/12 07:35:08;;;;;;;9.23;5.05;;;21.50;99.90;;;;;;4214242;28;20047;-59
2023/06/12 07:37:12;;;;;;;19.02;6.35;;;21.60;99.90;;;;;;4214288;28;20052;-60
2023/06/12 07:39:14;;;;;;;16.08;5.15;;;21.60;99.90;;;;;;4214250;28;20044;-58
2023/06/12 07:41:17;;;;;;;17.38;6.13;;;21.70;99.90;;;;;;4213110;28;20105;-59
2023/06/12 07:43:19;;;;;;;11.20;5.80;;;21.70;99.90;;;;;;4214144;28;20044;-59
2023/06/12 07:45:21;;;;;;;7.03;5.45;;;21.60;99.90;;;;;;4214109;28;20075;-59
2023/06/12 07:47:23;;;;;;;9.82;5.30;;;21.60;99.90;;;;;;4213839;28;20437;-59
2023/06/12 07:49:27;;;;;;;10.85;5.60;;;21.60;99.90;;;;;;4214366;28;20127;-59
2023/06/12 07:51:29;;;;;;;12.02;5.57;;;21.70;99.90;;;;;;4212947;28;20044;-58
2023/06/12 07:53:31;;;;;;;8.40;5.28;;;21.90;99.90;;;;;;4213869;28;20462;-59
2023/06/12 07:55:40;;;;;;;9.75;5.30;;;21.70;99.90;;;;;;4214217;28;20064;-59
2023/06/12 07:57:42;;;;;;;7.22;5.30;;;21.80;99.90;;;;;;4214095;28;20444;-59
2023/06/12 07:59:45;;;;;;;6.93;4.88;;;21.80;99.90;;;;;;4214098;28;20044;-59
2023/06/12 08:01:50;;;;;;;8.40;4.82;;;21.90;99.90;;;;;;4212540;28;20074;-58
2023/06/12 08:03:56;;;;;;;10.13;5.70;;;22.00;99.90;;;;;;4214040;28;20125;-59
2023/06/12 08:06:00;;;;;;;12.85;6.35;;;22.20;99.90;;;;;;4214228;28;20405;-59
2023/06/12 08:08:06;;;;;;;10.07;5.55;;;22.20;99.90;;;;;;4213718;28;20051;-59
2023/06/12 08:10:09;;;;;;;19.48;7.43;;;22.30;99.90;;;;;;4213923;28;20119;-58
2023/06/12 08:12:11;;;;;;;19.95;6.88;;;22.40;99.90;;;;;;4195128;28;20044;-60
2023/06/12 08:14:13;;;;;;;25.27;7.68;;;22.50;99.90;;;;;;4214005;28;20124;-59
2023/06/12 08:16:16;;;;;;;12.52;6.90;;;22.50;99.90;;;;;;4213640;28;20477;-59
2023/06/12 08:18:19;;;;;;;16.63;6.60;;;22.40;99.90;;;;;;4213926;28;20040;-59
2023/06/12 08:20:21;;;;;;;8.20;5.72;;;22.40;99.90;;;;;;4194937;28;20045;-59
2023/06/12 08:22:25;;;;;;;11.45;5.70;;;22.30;99.90;;;;;;4213476;28;20051;-59
2023/06/12 08:24:29;;;;;;;9.43;6.18;;;22.30;99.90;;;;;;4213831;28;20075;-59
2023/06/12 08:26:32;;;;;;;11.15;6.10;;;22.30;99.90;;;;;;4213657;28;20043;-59
2023/06/12 08:28:35;;;;;;;15.35;6.88;;;22.30;99.90;;;;;;4213530;28;20044;-59
2023/06/12 08:30:37;;;;;;;24.15;8.25;;;22.40;99.90;;;;;;4213756;28;20048;-59
2023/06/12 08:32:39;;;;;;;14.35;6.60;;;22.60;99.90;;;;;;4216605;28;20071;-62
2023/06/12 08:34:42;;;;;;;9.50;5.80;;;22.50;99.90;;;;;;4216603;28;20065;-59
2023/06/12 08:36:44;;;;;;;11.35;5.65;;;22.50;99.90;;;;;;4214836;28;20052;-59
2023/06/12 08:38:48;;;;;;;16.52;6.57;;;22.50;99.90;;;;;;4214084;28;20048;-61
2023/06/12 08:40:53;;;;;;;10.63;5.72;;;22.60;99.90;;;;;;4194770;28;20439;-59
2023/06/12 08:42:55;;;;;;;13.50;6.25;;;22.60;99.90;;;;;;4213653;28;20130;-59
2023/06/12 08:45:03;;;;;;;7.93;5.28;;;22.60;99.90;;;;;;4213150;28;20072;-59
2023/06/12 08:47:22;;;;;;;9.32;5.05;;;22.50;99.90;;;;;;4215076;28;20051;-59
2023/06/12 08:49:25;;;;;;;9.20;5.50;;;22.60;99.90;;;;;;4217126;28;20439;-58
2023/06/12 08:51:30;;;;;;;9.88;6.13;;;22.60;99.90;;;;;;4216061;28;20075;-58
2023/06/12 08:53:34;;;;;;;;;;;22.70;99.90;;;;;;4199648;28;20056;-58
2023/06/12 08:55:39;;;;;;;18.55;6.70;;;22.70;99.90;;;;;;4216226;28;19927;-59
2023/06/12 08:57:41;;;;;;;10.52;5.15;;;22.80;99.90;;;;;;4216979;28;20127;-59
2023/06/12 08:59:44;;;;;;;9.05;5.35;;;22.80;99.90;;;;;;4216513;28;20147;-59
2023/06/12 09:01:52;;;;;;;7.55;5.20;;;22.90;99.90;;;;;;4215772;28;20055;-60
2023/06/12 09:04:21;;;;;;;10.98;5.80;;;23.00;99.90;;;;;;4216773;28;20063;-59
2023/06/12 09:06:23;;;;;;;16.02;7.10;;;23.10;99.90;;;;;;4216780;28;20044;-59
2023/06/12 09:08:26;;;;;;;9.45;6.20;;;23.20;99.90;;;;;;4216677;28;20044;-58
2023/06/12 09:10:28;;;;;;;10.60;5.75;;;23.30;99.90;;;;;;4216002;28;20040;-58
2023/06/12 09:12:31;;;;;;;12.88;6.95;;;23.30;99.90;;;;;;4215833;28;20047;-57
2023/06/12 09:14:35;;;;;;;7.65;6.60;;;23.40;99.90;;;;;;4216338;28;20426;-59
2023/06/12 09:16:37;;;;;;;33.35;7.72;;;23.40;99.90;;;;;;4216983;28;20440;-59
2023/06/12 09:18:50;;;;;;;21.60;7.97;;;23.40;99.90;;;;;;4216319;28;20115;-59
2023/06/12 09:20:53;;;;;;;27.90;8.60;;;23.40;99.90;;;;;;4215555;28;20044;-59
2023/06/12 09:22:56;;;;;;;14.52;7.50;;;23.30;99.90;;;;;;4216630;28;20174;-65
2023/06/12 09:25:05;;;;;;;9.63;6.82;;;23.40;99.90;;;;;;4216892;28;20059;-58
2023/06/12 09:27:07;;;;;;;14.80;7.35;;;23.30;99.90;;;;;;4198176;28;20107;-59
2023/06/12 09:29:11;;;;;;;14.23;6.60;;;23.30;99.90;;;;;;4199674;28;20059;-57
2023/06/12 09:31:14;;;;;;;16.98;6.65;;;23.30;99.90;;;;;;4198756;28;20049;-56
2023/06/12 09:33:17;;;;;;;11.80;6.97;;;23.30;99.90;;;;;;4199391;28;20044;-59
2023/06/12 09:35:19;;;;;;;17.60;8.02;;;23.30;99.90;;;;;;4199389;28;20067;-58
2023/06/12 09:37:22;;;;;;;12.85;7.50;;;23.40;99.90;;;;;;4199684;28;20447;-58
2023/06/12 09:39:26;;;;;;;8.50;6.15;;;23.40;99.90;;;;;;4199552;28;20049;-58
2023/06/12 09:41:29;;;;;;;9.32;6.13;;;23.20;99.90;;;;;;4180712;28;20399;-59
2023/06/12 09:43:32;;;;;;;12.50;6.82;;;23.20;99.90;;;;;;4198953;28;20049;-59
2023/06/12 09:45:35;;;;;;;25.35;8.65;;;23.20;99.90;;;;;;4199476;28;20076;-58
2023/06/12 09:47:40;;;;;;;39.95;9.55;;;23.30;99.90;;;;;;4199248;28;20456;-59
2023/06/12 09:49:42;;;;;;;13.05;7.90;;;23.30;99.90;;;;;;4199582;28;20150;-58
2023/06/12 09:51:47;;;;;;;34.30;9.88;;;23.40;99.90;;;;;;4198380;28;20055;-58
2023/06/12 09:53:54;;;;;;;35.63;10.55;;;23.40;99.90;;;;;;4199561;28;20052;-59
2023/06/12 09:55:57;;;;;;;34.33;9.35;;;23.50;99.90;;;;;;4199765;28;20041;-60
2023/06/12 09:57:59;;;;;;;27.02;9.32;;;23.60;99.90;;;;;;4198559;28;20060;-59
2023/06/12 10:00:03;;;;;;;21.48;7.57;;;23.60;99.90;;;;;;4165028;28;20144;-58
2023/06/12 10:02:14;;;;;;;23.42;8.68;;;23.90;99.90;;;;;;4198428;28;20075;-58
2023/06/12 10:04:24;;;;;;;17.25;8.98;;;24.10;99.90;;;;;;4181477;28;20383;-57
2023/06/12 10:06:31;;;;;;;21.58;8.35;;;24.10;99.60;;;;;;4199114;28;20417;-59
2023/06/12 10:08:34;;;;;;;16.25;7.50;;;24.00;99.90;;;;;;4199108;28;20472;-59
2023/06/12 10:10:36;;;;;;;13.02;8.00;;;23.90;99.90;;;;;;4198861;28;20119;-59
2023/06/12 10:12:38;;;;;;;19.40;8.90;;;23.80;99.90;;;;;;4197801;28;20103;-59
2023/06/12 10:14:41;;;;;;;11.07;7.57;;;23.70;99.90;;;;;;4198755;28;20452;-59
2023/06/12 10:16:46;;;;;;;12.55;7.88;;;23.60;99.90;;;;;;4198733;28;20462;-59
2023/06/12 10:18:49;;;;;;;21.48;9.43;;;23.60;99.90;;;;;;4198821;28;20101;-59
2023/06/12 10:20:53;;;;;;;10.38;8.00;;;23.50;99.90;;;;;;4197952;28;20054;-59
2023/06/12 10:22:56;;;;;;;17.60;9.48;;;23.40;99.90;;;;;;4198819;28;20457;-59
2023/06/12 10:25:00;;;;;;;19.27;8.90;;;23.40;99.90;;;;;;4198910;28;20045;-59
2023/06/12 10:27:03;;;;;;;13.55;8.10;;;23.30;99.90;;;;;;4207195;28;20060;-59
2023/06/12 10:29:26;;;;;;;11.40;7.95;;;23.20;99.90;;;;;;4216466;28;20047;-59
2023/06/12 10:31:32;;;;;;;18.40;8.88;;;23.10;99.90;;;;;;4215862;28;20124;-60
2023/06/12 10:33:34;;;;;;;15.50;7.78;;;23.20;99.90;;;;;;4216754;28;20439;-59
2023/06/12 10:35:40;;;;;;;14.38;7.82;;;23.30;99.90;;;;;;4216995;28;20054;-59
2023/06/12 10:37:46;;;;;;;10.93;7.20;;;23.40;99.90;;;;;;4215410;28;20126;-58